createdAt,value
2018-05-13T00:01:26.713Z,18.50
2018-05-13T00:03:56.019Z,18.50
2018-05-13T00:06:25.019Z,18.50
2018-05-13T00:08:52.783Z,18.50
2018-05-13T00:11:20.261Z,18.50
2018-05-13T00:13:47.792Z,18.50
2018-05-13T00:16:15.459Z,18.50
2018-05-13T00:18:44.447Z,18.40
2018-05-13T00:21:12.127Z,18.40
2018-05-13T00:23:39.590Z,18.40
2018-05-13T00:26:07.076Z,18.40
2018-05-13T00:28:34.535Z,18.40
2018-05-13T00:31:02.052Z,18.40
2018-05-13T00:33:31.034Z,18.30
2018-05-13T00:35:58.509Z,18.20
2018-05-13T00:38:26.271Z,18.20
2018-05-13T00:40:55.251Z,18.20
2018-05-13T00:43:22.724Z,18.20
2018-05-13T00:45:51.694Z,18.10
2018-05-13T00:48:19.155Z,18.20
2018-05-13T00:50:46.637Z,18.20
2018-05-13T00:53:15.606Z,18.00
2018-05-13T00:55:43.083Z,18.00
2018-05-13T00:58:12.086Z,17.90
2018-05-13T01:00:41.078Z,17.80
2018-05-13T01:03:10.055Z,17.70
2018-05-13T01:05:37.531Z,17.70
2018-05-13T01:08:05.098Z,17.80
2018-05-13T01:10:33.331Z,17.80
2018-05-13T01:13:01.138Z,17.70
2018-05-13T01:15:28.814Z,17.80
2018-05-13T01:17:56.370Z,17.70
2018-05-13T01:20:23.843Z,17.70
2018-05-13T01:22:51.704Z,17.60
2018-05-13T01:25:19.926Z,17.60
2018-05-13T01:27:47.526Z,17.60
2018-05-13T01:30:15.767Z,17.60
2018-05-13T01:32:43.232Z,17.60
2018-05-13T01:35:10.706Z,17.60
2018-05-13T01:37:38.378Z,17.60
2018-05-13T01:40:05.923Z,17.60
2018-05-13T01:42:34.906Z,17.70
2018-05-13T01:45:02.603Z,17.70
2018-05-13T01:47:30.094Z,17.70
2018-05-13T01:49:57.602Z,17.70
2018-05-13T01:52:25.929Z,17.60
2018-05-13T01:54:53.446Z,17.60
2018-05-13T01:57:22.415Z,17.60
2018-05-13T01:59:49.894Z,17.50
2018-05-13T02:02:18.876Z,17.60
2018-05-13T02:04:46.347Z,17.60
2018-05-13T02:07:15.646Z,17.50
2018-05-13T02:09:43.116Z,17.60
2018-05-13T02:12:10.583Z,17.60
2018-05-13T02:14:38.055Z,17.60
2018-05-13T02:17:05.636Z,17.60
2018-05-13T02:19:33.225Z,17.50
2018-05-13T02:22:00.644Z,17.50
2018-05-13T02:24:28.110Z,17.50
2018-05-13T02:26:55.599Z,17.50
2018-05-13T02:29:23.082Z,17.50
2018-05-13T02:31:50.547Z,17.50
2018-05-13T02:34:18.905Z,17.50
2018-05-13T02:36:46.383Z,17.50
2018-05-13T02:39:13.866Z,17.50
2018-05-13T02:41:41.337Z,17.50
2018-05-13T02:44:08.806Z,17.40
2018-05-13T02:46:36.444Z,17.30
2018-05-13T02:49:03.915Z,17.30
2018-05-13T02:51:31.429Z,17.30
2018-05-13T02:54:00.403Z,17.30
2018-05-13T02:56:27.878Z,17.30
2018-05-13T02:58:56.120Z,17.40
2018-05-13T03:01:23.598Z,17.40
2018-05-13T03:03:51.078Z,17.30
2018-05-13T03:06:18.556Z,17.20
2018-05-13T03:08:46.031Z,17.10
2018-05-13T03:11:13.514Z,17.00
2018-05-13T03:13:41.011Z,17.00
2018-05-13T03:16:10.002Z,16.90
2018-05-13T03:18:38.982Z,16.80
2018-05-13T03:21:06.762Z,16.80
2018-05-13T03:23:35.754Z,16.70
2018-05-13T03:26:03.991Z,16.60
2018-05-13T03:28:31.599Z,16.60
2018-05-13T03:31:00.591Z,16.60
2018-05-13T03:33:29.590Z,16.60
2018-05-13T03:35:57.378Z,16.60
2018-05-13T03:38:24.848Z,16.70
2018-05-13T03:40:52.518Z,16.70
2018-05-13T03:43:20.067Z,16.70
2018-05-13T03:45:47.540Z,16.60
2018-05-13T03:48:15.299Z,16.60
2018-05-13T03:50:42.762Z,16.60
2018-05-13T03:53:10.313Z,16.50
2018-05-13T03:55:37.966Z,16.50
2018-05-13T03:58:05.713Z,16.50
2018-05-13T04:00:33.249Z,16.40
2018-05-13T04:03:00.731Z,16.50
2018-05-13T04:05:29.047Z,16.60
2018-05-13T04:11:17.929Z,16.60
2018-05-13T04:13:57.282Z,16.70
2018-05-13T04:16:24.792Z,16.80
2018-05-13T04:18:52.494Z,16.80
2018-05-13T04:21:19.995Z,16.80
2018-05-13T04:23:47.492Z,16.90
2018-05-13T04:26:15.014Z,16.90
2018-05-13T04:28:42.503Z,16.90
2018-05-13T04:31:09.995Z,17.00
2018-05-13T04:33:37.519Z,16.90
2018-05-13T04:36:05.797Z,16.90
2018-05-13T04:38:33.635Z,16.90
2018-05-13T04:41:01.151Z,16.90
2018-05-13T04:43:28.789Z,17.00
2018-05-13T04:45:56.289Z,17.00
2018-05-13T04:48:23.847Z,17.10
2018-05-13T04:50:51.398Z,17.10
2018-05-13T04:53:18.895Z,17.20
2018-05-13T04:55:46.414Z,17.20
2018-05-13T04:58:13.993Z,17.20
2018-05-13T05:00:41.551Z,17.20
2018-05-13T05:03:09.112Z,17.30
2018-05-13T05:05:36.629Z,17.40
2018-05-13T05:08:04.326Z,17.30
2018-05-13T05:10:32.060Z,17.20
2018-05-13T05:12:59.578Z,17.20
2018-05-13T05:15:27.240Z,17.30
2018-05-13T05:17:54.795Z,17.30
2018-05-13T05:20:22.322Z,17.50
2018-05-13T05:22:50.032Z,17.60
2018-05-13T05:25:18.315Z,17.70
2018-05-13T05:27:45.942Z,17.80
2018-05-13T05:30:13.544Z,17.80
2018-05-13T05:32:41.053Z,17.90
2018-05-13T05:35:08.592Z,18.00
2018-05-13T05:37:36.117Z,18.10
2018-05-13T05:40:03.623Z,18.10
2018-05-13T05:42:31.147Z,18.10
2018-05-13T05:44:58.929Z,18.30
2018-05-13T05:47:26.417Z,18.40
2018-05-13T05:49:53.957Z,18.50
2018-05-13T05:52:21.581Z,18.50
2018-05-13T05:54:49.377Z,18.50
2018-05-13T05:57:16.845Z,18.50
2018-05-13T05:59:44.537Z,18.40
2018-05-13T06:02:12.070Z,18.30
2018-05-13T06:04:39.568Z,18.40
2018-05-13T06:07:07.049Z,18.40
2018-05-13T06:09:34.522Z,18.50
2018-05-13T06:12:02.837Z,18.40
2018-05-13T06:14:30.299Z,18.40
2018-05-13T06:16:57.827Z,18.50
2018-05-13T06:19:25.440Z,18.60
2018-05-13T06:21:52.933Z,18.60
2018-05-13T06:24:20.594Z,18.70
2018-05-13T06:26:48.144Z,18.80
2018-05-13T06:29:15.606Z,18.90
2018-05-13T06:31:43.077Z,19.00
2018-05-13T06:34:10.813Z,19.20
2018-05-13T06:36:38.499Z,19.30
2018-05-13T06:39:06.006Z,19.40
2018-05-13T06:41:33.470Z,19.60
2018-05-13T06:44:00.958Z,19.60
2018-05-13T06:46:28.735Z,19.70
2018-05-13T06:48:56.228Z,19.70
2018-05-13T06:51:23.784Z,19.80
2018-05-13T06:53:51.327Z,19.80
2018-05-13T06:56:18.789Z,19.90
2018-05-13T06:58:46.253Z,20.00
2018-05-13T07:01:13.769Z,20.10
2018-05-13T07:03:41.235Z,20.20
2018-05-13T07:06:09.003Z,20.40
2018-05-13T07:08:36.466Z,20.40
2018-05-13T07:11:03.947Z,20.60
2018-05-13T07:13:31.683Z,20.70
2018-05-13T07:15:59.144Z,20.70
2018-05-13T07:18:26.923Z,20.70
2018-05-13T07:20:54.393Z,20.90
2018-05-13T07:23:22.130Z,21.10
2018-05-13T07:25:49.897Z,21.20
2018-05-13T07:28:17.539Z,21.30
2018-05-13T07:30:45.119Z,21.30
2018-05-13T07:33:12.900Z,21.40
2018-05-13T07:35:40.363Z,21.70
2018-05-13T07:38:08.643Z,21.70
2018-05-13T07:40:36.174Z,21.60
2018-05-13T07:43:03.675Z,21.50
2018-05-13T07:45:31.364Z,21.70
2018-05-13T07:47:58.836Z,21.70
2018-05-13T07:50:26.327Z,21.80
2018-05-13T07:52:53.815Z,21.80
2018-05-13T07:55:21.477Z,21.90
2018-05-13T07:57:49.029Z,22.00
2018-05-13T08:00:16.622Z,22.00
2018-05-13T08:02:44.147Z,22.10
2018-05-13T08:05:12.376Z,22.40
2018-05-13T08:07:39.846Z,22.40
2018-05-13T08:10:07.513Z,22.40
2018-05-13T08:12:34.986Z,22.70
2018-05-13T08:15:02.452Z,22.90
2018-05-13T08:17:30.111Z,23.20
2018-05-13T08:19:57.585Z,23.50
2018-05-13T08:22:25.052Z,24.20
2018-05-13T08:24:52.526Z,24.50
2018-05-13T08:27:19.990Z,24.70
2018-05-13T08:29:47.486Z,25.00
2018-05-13T08:32:14.963Z,25.10
2018-05-13T08:34:42.716Z,25.10
2018-05-13T08:37:10.177Z,25.30
2018-05-13T08:39:37.934Z,25.60
2018-05-13T08:42:05.409Z,26.10
2018-05-13T08:44:33.166Z,26.20
2018-05-13T08:47:00.923Z,26.00
2018-05-13T08:49:28.695Z,25.50
2018-05-13T08:51:56.253Z,25.20
2018-05-13T08:54:23.729Z,25.00
2018-05-13T08:56:51.955Z,25.10
2018-05-13T08:59:19.447Z,25.10
2018-05-13T09:01:47.130Z,25.30
2018-05-13T09:04:14.651Z,25.80
2018-05-13T09:06:42.436Z,26.60
2018-05-13T09:09:10.122Z,27.40
2018-05-13T09:11:37.581Z,28.20
2018-05-13T09:14:05.155Z,28.50
2018-05-13T09:16:32.591Z,27.80
2018-05-13T09:19:00.254Z,26.40
2018-05-13T09:21:27.791Z,25.40
2018-05-13T09:23:55.255Z,24.90
2018-05-13T09:26:23.018Z,24.60
2018-05-13T09:28:50.482Z,24.20
2018-05-13T09:31:17.948Z,23.70
2018-05-13T09:33:45.745Z,23.30
2018-05-13T09:36:13.212Z,22.90
2018-05-13T09:38:40.922Z,22.60
2018-05-13T09:41:08.697Z,22.60
2018-05-13T09:43:36.158Z,22.70
2018-05-13T09:46:03.624Z,22.70
2018-05-13T09:48:31.304Z,23.00
2018-05-13T09:50:58.834Z,23.20
2018-05-13T09:53:26.429Z,23.30
2018-05-13T09:55:54.003Z,23.30
2018-05-13T09:58:21.462Z,23.40
2018-05-13T10:00:48.934Z,23.50
2018-05-13T10:03:16.422Z,23.50
2018-05-13T10:05:43.897Z,23.30
2018-05-13T10:08:12.148Z,23.00
2018-05-13T10:10:39.723Z,23.10
2018-05-13T10:13:07.190Z,22.90
2018-05-13T10:15:34.946Z,22.80
2018-05-13T10:18:02.707Z,22.70
2018-05-13T10:20:30.169Z,22.50
2018-05-13T10:22:58.077Z,22.40
2018-05-13T10:25:25.659Z,22.70
2018-05-13T10:27:53.126Z,22.60
2018-05-13T10:30:20.587Z,22.70
2018-05-13T10:32:48.062Z,22.90
2018-05-13T10:35:15.531Z,23.40
2018-05-13T10:37:43.303Z,23.60
2018-05-13T10:40:10.821Z,24.10
2018-05-13T10:42:38.434Z,24.10
2018-05-13T10:45:05.903Z,24.40
2018-05-13T10:47:33.377Z,24.50
2018-05-13T10:50:00.842Z,24.60
2018-05-13T10:52:28.305Z,23.80
2018-05-13T10:54:55.812Z,23.30
2018-05-13T10:57:23.533Z,22.80
2018-05-13T10:59:50.993Z,22.50
2018-05-13T11:02:18.486Z,22.20
2018-05-13T11:04:46.199Z,21.90
2018-05-13T11:07:13.680Z,22.10
2018-05-13T11:09:41.170Z,22.40
2018-05-13T11:12:08.630Z,22.60
2018-05-13T11:14:36.147Z,22.70
2018-05-13T11:17:03.646Z,23.00
2018-05-13T11:19:31.267Z,23.30
2018-05-13T11:21:58.727Z,24.20
2018-05-13T11:24:26.199Z,25.00
2018-05-13T11:26:53.704Z,25.40
2018-05-13T11:29:21.253Z,25.10
2018-05-13T11:31:48.791Z,24.80
2018-05-13T11:34:16.335Z,23.90
2018-05-13T11:36:43.791Z,23.20
2018-05-13T11:39:11.418Z,22.50
2018-05-13T11:41:39.664Z,21.40
2018-05-13T11:44:07.215Z,21.40
2018-05-13T11:46:34.886Z,21.10
2018-05-13T11:49:02.530Z,20.80
2018-05-13T11:51:30.092Z,20.30
2018-05-13T11:53:57.603Z,19.90
2018-05-13T11:56:25.182Z,19.50
2018-05-13T11:58:52.619Z,19.20
2018-05-13T12:01:20.868Z,19.30
2018-05-13T12:03:48.399Z,19.30
2018-05-13T12:06:16.039Z,19.20
2018-05-13T12:08:43.541Z,19.30
2018-05-13T12:11:12.546Z,19.40
2018-05-13T12:13:40.027Z,19.40
2018-05-13T12:16:07.490Z,19.20
2018-05-13T12:18:34.966Z,19.00
2018-05-13T12:21:02.441Z,19.00
2018-05-13T12:23:29.955Z,18.90
2018-05-13T12:25:58.193Z,18.50
2018-05-13T12:28:25.652Z,18.50
2018-05-13T12:30:53.126Z,18.40
2018-05-13T12:33:22.121Z,18.10
2018-05-13T12:35:49.595Z,18.10
2018-05-13T12:38:17.379Z,18.10
2018-05-13T12:40:44.856Z,18.00
2018-05-13T12:43:12.566Z,18.00
2018-05-13T12:45:41.570Z,17.90
2018-05-13T12:48:09.210Z,17.90
2018-05-13T12:50:36.702Z,17.90
2018-05-13T12:53:04.161Z,17.60
2018-05-13T12:55:31.703Z,17.40
2018-05-13T12:57:59.467Z,17.40
2018-05-13T13:00:28.766Z,17.30
2018-05-13T13:02:57.037Z,17.40
2018-05-13T13:05:24.598Z,17.30
2018-05-13T13:07:52.994Z,17.30
2018-05-13T13:10:20.466Z,17.10
2018-05-13T13:12:48.018Z,17.20
2018-05-13T13:15:16.362Z,16.90
2018-05-13T13:17:44.057Z,16.90
2018-05-13T13:20:12.365Z,16.70
2018-05-13T13:22:39.870Z,16.70
2018-05-13T13:25:07.417Z,16.50
2018-05-13T13:27:34.946Z,16.20
2018-05-13T13:30:02.466Z,16.00
2018-05-13T13:32:30.045Z,16.10
2018-05-13T13:34:57.523Z,16.20
2018-05-13T13:37:25.039Z,16.30
2018-05-13T13:39:52.578Z,16.40
2018-05-13T13:42:20.078Z,16.60
2018-05-13T13:44:47.562Z,16.60
2018-05-13T13:47:15.093Z,16.80
2018-05-13T13:49:42.604Z,16.90
2018-05-13T13:52:10.103Z,17.10
2018-05-13T13:54:37.619Z,17.20
2018-05-13T13:57:05.090Z,17.30
2018-05-13T13:59:32.572Z,17.40
2018-05-13T14:02:00.097Z,17.40
2018-05-13T14:04:27.638Z,17.50
2018-05-13T14:06:55.367Z,17.60
2018-05-13T14:09:23.631Z,17.40
2018-05-13T14:11:51.194Z,17.40
2018-05-13T14:14:18.655Z,17.50
2018-05-13T14:16:47.627Z,17.40
2018-05-13T14:19:15.098Z,17.40
2018-05-13T14:21:42.819Z,17.40
2018-05-13T14:24:10.327Z,17.40
2018-05-13T14:26:37.828Z,17.20
2018-05-13T14:29:05.553Z,17.20
2018-05-13T14:31:33.859Z,17.00
2018-05-13T14:34:01.349Z,17.00
2018-05-13T14:36:28.889Z,17.00
2018-05-13T14:38:56.675Z,17.00
2018-05-13T14:41:24.210Z,16.80
2018-05-13T14:43:51.744Z,16.90
2018-05-13T14:46:19.246Z,16.70
2018-05-13T14:48:46.718Z,16.80
2018-05-13T14:51:14.246Z,16.80
2018-05-13T14:53:41.794Z,16.80
2018-05-13T14:56:10.067Z,16.70
2018-05-13T14:58:37.587Z,16.70
2018-05-13T15:01:05.079Z,16.60
2018-05-13T15:03:33.382Z,16.70
2018-05-13T15:06:01.155Z,16.70
2018-05-13T15:08:28.656Z,16.60
2018-05-13T15:10:56.383Z,16.50
2018-05-13T15:13:23.857Z,16.40
2018-05-13T15:15:51.339Z,16.40
2018-05-13T15:18:18.823Z,16.30
2018-05-13T15:20:47.127Z,16.10
2018-05-13T15:23:14.676Z,16.10
2018-05-13T15:25:42.944Z,16.20
2018-05-13T15:28:10.588Z,16.20
2018-05-13T15:30:38.070Z,16.10
2018-05-13T15:33:05.603Z,16.20
2018-05-13T15:35:33.407Z,16.30
2018-05-13T15:38:00.895Z,16.30
2018-05-13T15:40:28.418Z,16.40
2018-05-13T15:42:56.078Z,16.50
2018-05-13T15:45:23.430Z,16.50
2018-05-13T15:47:51.570Z,16.50
2018-05-13T15:50:19.060Z,16.60
2018-05-13T15:52:46.561Z,16.70
2018-05-13T15:55:14.084Z,16.90
2018-05-13T15:57:41.685Z,16.70
2018-05-13T16:00:09.220Z,16.90
2018-05-13T16:02:36.712Z,16.90
2018-05-13T16:05:04.170Z,16.90
2018-05-13T16:07:31.730Z,16.90
2018-05-13T16:09:59.222Z,16.90
2018-05-13T16:12:26.682Z,16.90
2018-05-13T16:14:54.160Z,17.00
2018-05-13T16:17:21.653Z,17.10
2018-05-13T16:19:49.130Z,17.10
2018-05-13T16:22:16.601Z,17.00
2018-05-13T16:24:44.071Z,17.10
2018-05-13T16:27:12.306Z,17.20
2018-05-13T16:29:39.939Z,17.20
2018-05-13T16:32:07.382Z,17.20
2018-05-13T16:34:35.047Z,17.00
2018-05-13T16:37:02.542Z,17.00
2018-05-13T16:39:30.028Z,17.00
2018-05-13T16:41:57.521Z,17.00
2018-05-13T16:44:25.222Z,17.00
2018-05-13T16:46:52.692Z,17.00
2018-05-13T16:49:20.185Z,16.90
2018-05-13T16:51:49.202Z,16.80
2018-05-13T16:54:16.681Z,16.80
2018-05-13T16:56:44.396Z,16.80
2018-05-13T16:59:12.206Z,16.80
2018-05-13T17:01:39.964Z,16.90
2018-05-13T17:04:07.634Z,17.00
2018-05-13T17:06:35.115Z,17.00
2018-05-13T17:09:02.582Z,17.20
2018-05-13T17:11:30.064Z,17.20
2018-05-13T17:13:57.541Z,17.30
2018-05-13T17:16:25.028Z,17.20
2018-05-13T17:18:52.612Z,17.30
2018-05-13T17:21:20.092Z,17.30
2018-05-13T17:23:47.562Z,17.20
2018-05-13T17:26:15.038Z,17.20
2018-05-13T17:28:42.503Z,17.10
2018-05-13T17:31:10.000Z,17.00
2018-05-13T17:33:37.498Z,17.00
2018-05-13T17:36:04.970Z,17.00
2018-05-13T17:38:32.451Z,16.80
2018-05-13T17:41:00.183Z,16.80
2018-05-13T17:43:27.697Z,16.70
2018-05-13T17:45:55.744Z,16.80
2018-05-13T17:48:23.222Z,16.80
2018-05-13T17:50:50.698Z,16.70
2018-05-13T17:53:18.159Z,16.70
2018-05-13T17:55:45.774Z,16.70
2018-05-13T17:58:13.262Z,16.70
2018-05-13T18:00:40.763Z,16.60
2018-05-13T18:03:09.777Z,16.50
2018-05-13T18:05:37.243Z,16.50
2018-05-13T18:08:04.706Z,16.50
2018-05-13T18:10:32.191Z,16.50
2018-05-13T18:12:59.829Z,16.50
2018-05-13T18:15:27.334Z,16.50
2018-05-13T18:17:54.831Z,16.50
2018-05-13T18:20:22.286Z,16.40
2018-05-13T18:22:50.191Z,16.40
2018-05-13T18:25:17.672Z,16.40
2018-05-13T18:27:45.308Z,16.40
2018-05-13T18:30:12.790Z,16.40
2018-05-13T18:32:40.394Z,16.30
2018-05-13T18:35:07.939Z,16.30
2018-05-13T18:37:35.401Z,16.30
2018-05-13T18:40:04.383Z,16.30
2018-05-13T18:42:31.852Z,16.30
2018-05-13T18:44:59.334Z,16.30
2018-05-13T18:47:26.821Z,16.30
2018-05-13T18:49:54.535Z,16.30
2018-05-13T18:52:23.526Z,16.20
2018-05-13T18:54:52.556Z,16.20
2018-05-13T18:57:20.286Z,16.20
2018-05-13T18:59:49.268Z,16.10
2018-05-13T19:02:16.739Z,16.10
2018-05-13T19:04:45.036Z,16.00
2018-05-13T19:07:12.587Z,16.00
2018-05-13T19:09:40.847Z,15.80
2018-05-13T19:12:09.282Z,15.70
2018-05-13T19:14:36.805Z,15.70
2018-05-13T19:17:04.559Z,15.70
2018-05-13T19:19:32.059Z,15.70
2018-05-13T19:21:59.590Z,15.60
2018-05-13T19:24:27.839Z,15.40
2018-05-13T19:26:55.325Z,15.40
2018-05-13T19:29:23.090Z,15.40
2018-05-13T19:31:50.555Z,15.40
2018-05-13T19:34:18.050Z,15.30
2018-05-13T19:36:45.621Z,15.20
2018-05-13T19:39:13.060Z,15.30
2018-05-13T19:41:40.674Z,15.30
2018-05-13T19:44:09.010Z,15.10
2018-05-13T19:46:36.510Z,15.00
2018-05-13T19:49:04.291Z,15.00
2018-05-13T19:51:31.772Z,14.90
2018-05-13T19:53:59.251Z,15.00
2018-05-13T19:56:26.836Z,15.00
2018-05-13T19:58:54.321Z,14.90
2018-05-13T20:01:21.876Z,14.90
2018-05-13T20:03:49.403Z,14.90
2018-05-13T20:06:17.050Z,15.00
2018-05-13T20:08:44.515Z,15.10
2018-05-13T20:11:12.008Z,15.10
2018-05-13T20:13:39.558Z,15.10
2018-05-13T20:16:07.043Z,15.10
2018-05-13T20:18:34.504Z,15.00
2018-05-13T20:21:02.781Z,15.00
2018-05-13T20:23:30.474Z,15.00
2018-05-13T20:25:57.944Z,15.00
2018-05-13T20:28:25.446Z,15.10
2018-05-13T20:30:53.237Z,15.10
2018-05-13T20:33:20.713Z,15.10
2018-05-13T20:35:48.212Z,15.10
2018-05-13T20:38:15.817Z,15.10
2018-05-13T20:40:43.297Z,15.10
2018-05-13T20:43:10.820Z,15.10
2018-05-13T20:45:38.499Z,15.10
2018-05-13T20:48:05.997Z,15.10
2018-05-13T20:50:33.508Z,15.10
2018-05-13T20:53:00.994Z,15.00
2018-05-13T20:55:28.499Z,15.00
2018-05-13T20:57:56.191Z,15.10
2018-05-13T21:00:23.626Z,15.00
2018-05-13T21:02:51.102Z,15.00
2018-05-13T21:05:18.657Z,15.10
2018-05-13T21:07:46.469Z,15.10
2018-05-13T21:10:13.935Z,15.00
2018-05-13T21:12:41.422Z,15.10
2018-05-13T21:15:09.027Z,15.10
2018-05-13T21:17:36.505Z,15.10
2018-05-13T21:20:03.973Z,15.10
2018-05-13T21:22:31.454Z,15.10
2018-05-13T21:24:58.930Z,15.10
2018-05-13T21:27:26.407Z,15.10
2018-05-13T21:29:54.645Z,15.00
2018-05-13T21:32:22.429Z,15.00
2018-05-13T21:34:49.906Z,14.90
2018-05-13T21:37:17.394Z,14.90
2018-05-13T21:39:44.895Z,14.90
2018-05-13T21:42:12.374Z,14.80
2018-05-13T21:44:40.801Z,14.80
2018-05-13T21:47:08.373Z,14.80
2018-05-13T21:49:35.875Z,14.80
2018-05-13T21:52:03.540Z,14.80
2018-05-13T21:54:31.097Z,14.70
2018-05-13T21:56:58.551Z,14.60
2018-05-13T21:59:26.049Z,14.50
2018-05-13T22:01:53.568Z,14.50
2018-05-13T22:04:21.051Z,14.60
2018-05-13T22:06:49.374Z,14.60
2018-05-13T22:09:16.855Z,14.60
2018-05-13T22:11:44.324Z,14.60
2018-05-13T22:14:12.604Z,14.60
2018-05-13T22:16:40.114Z,14.50
2018-05-13T22:19:07.610Z,14.50
2018-05-13T22:21:35.076Z,14.60
2018-05-13T22:24:02.744Z,14.60
2018-05-13T22:26:30.264Z,14.60
2018-05-13T22:28:57.845Z,14.60
2018-05-13T22:31:25.336Z,14.50
2018-05-13T22:33:52.908Z,14.50
2018-05-13T22:36:20.385Z,14.70
2018-05-13T22:38:47.898Z,14.80
2018-05-13T22:41:16.135Z,14.80
2018-05-13T22:43:43.610Z,14.80
2018-05-13T22:46:11.103Z,14.80
2018-05-13T22:48:38.642Z,14.80
2018-05-13T22:51:06.142Z,14.90
2018-05-13T22:53:33.637Z,14.70
2018-05-13T22:56:01.146Z,14.80
2018-05-13T22:58:28.709Z,14.80
2018-05-13T23:00:56.217Z,14.80
2018-05-13T23:03:23.718Z,14.80
2018-05-13T23:05:51.963Z,14.80
2018-05-13T23:08:19.529Z,14.80
2018-05-13T23:10:47.005Z,14.80
2018-05-13T23:13:14.498Z,14.80
2018-05-13T23:15:42.007Z,14.70
2018-05-13T23:18:09.510Z,14.70
2018-05-13T23:20:36.998Z,14.80
2018-05-13T23:23:04.495Z,14.80
2018-05-13T23:25:32.293Z,14.80
2018-05-13T23:27:59.940Z,14.80
2018-05-13T23:30:27.408Z,14.80
2018-05-13T23:32:54.930Z,14.80
2018-05-13T23:35:22.482Z,14.80
2018-05-13T23:37:51.064Z,14.80
2018-05-13T23:40:18.619Z,14.80
2018-05-13T23:42:46.101Z,14.80
2018-05-13T23:45:13.639Z,14.80
2018-05-13T23:47:41.141Z,14.70
2018-05-13T23:50:08.651Z,14.80
2018-05-13T23:52:36.119Z,14.70
2018-05-13T23:55:04.561Z,14.70
2018-05-13T23:57:32.074Z,14.70
2018-05-13T23:59:59.550Z,14.70
